sensor_id;sensor_type;location;lat;lon;timestamp;P1;durP1;ratioP1;P2;durP2;ratioP2
25980;SDS011;13772;52.996;9.124;2024-01-15T09:46:27;5.75;;;1.30;;
25980;SDS011;13772;52.996;9.124;2024-01-15T09:48:52;5.40;;;1.20;;
25980;SDS011;13772;52.996;9.124;2024-01-15T09:51:18;7.18;;;1.52;;
25980;SDS011;13772;52.996;9.124;2024-01-15T09:53:43;5.93;;;1.42;;
25980;SDS011;13772;52.996;9.124;2024-01-15T09:56:09;6.57;;;1.65;;
25980;SDS011;13772;52.996;9.124;2024-01-15T09:58:35;4.68;;;1.15;;
25980;SDS011;13772;52.996;9.124;2024-01-15T10:01:00;5.53;;;1.50;;
25980;SDS011;13772;52.996;9.124;2024-01-15T10:03:28;6.30;;;1.60;;
25980;SDS011;13772;52.996;9.124;2024-01-15T10:05:53;7.20;;;1.80;;
25980;SDS011;13772;52.996;9.124;2024-01-15T10:08:19;5.32;;;2.00;;
25980;SDS011;13772;52.996;9.124;2024-01-15T10:10:45;7.50;;;2.30;;
25980;SDS011;13772;52.996;9.124;2024-01-15T10:13:10;7.15;;;2.13;;
25980;SDS011;13772;52.996;9.124;2024-01-15T10:15:37;10.07;;;3.60;;
25980;SDS011;13772;52.996;9.124;2024-01-15T10:18:02;11.32;;;3.33;;
25980;SDS011;13772;52.996;9.124;2024-01-15T10:20:28;8.45;;;2.70;;
25980;SDS011;13772;52.996;9.124;2024-01-15T10:22:53;8.55;;;2.53;;
25980;SDS011;13772;52.996;9.124;2024-01-15T10:25:20;8.13;;;2.83;;
25980;SDS011;13772;52.996;9.124;2024-01-15T10:28:00;5.10;;;2.28;;
25980;SDS011;13772;52.996;9.124;2024-01-15T10:30:26;6.40;;;2.92;;
25980;SDS011;13772;52.996;9.124;2024-01-15T10:32:58;6.20;;;2.47;;
25980;SDS011;13772;52.996;9.124;2024-01-15T10:35:26;7.90;;;2.35;;
25980;SDS011;13772;52.996;9.124;2024-01-15T10:37:51;6.97;;;2.80;;
25980;SDS011;13772;52.996;9.124;2024-01-15T10:40:16;7.53;;;2.90;;
25980;SDS011;13772;52.996;9.124;2024-01-15T10:42:43;10.80;;;2.90;;
25980;SDS011;13772;52.996;9.124;2024-01-15T10:45:08;5.30;;;2.38;;
25980;SDS011;13772;52.996;9.124;2024-01-15T10:47:34;5.85;;;1.95;;
25980;SDS011;13772;52.996;9.124;2024-01-15T10:49:59;7.15;;;2.13;;
25980;SDS011;13772;52.996;9.124;2024-01-15T10:52:24;8.65;;;2.33;;
25980;SDS011;13772;52.996;9.124;2024-01-15T10:54:50;11.10;;;2.47;;
25980;SDS011;13772;52.996;9.124;2024-01-15T10:57:16;6.95;;;1.90;;
25980;SDS011;13772;52.996;9.124;2024-01-15T10:59:42;4.80;;;1.73;;
25980;SDS011;13772;52.996;9.124;2024-01-15T11:02:07;6.90;;;2.17;;
25980;SDS011;13772;52.996;9.124;2024-01-15T11:04:33;6.32;;;2.10;;
25980;SDS011;13772;52.996;9.124;2024-01-15T11:06:58;10.63;;;2.75;;
25980;SDS011;13772;52.996;9.124;2024-01-15T11:09:23;7.10;;;2.40;;
25980;SDS011;13772;52.996;9.124;2024-01-15T11:11:53;10.35;;;2.40;;
25980;SDS011;13772;52.996;9.124;2024-01-15T11:14:40;12.07;;;2.75;;
25980;SDS011;13772;52.996;9.124;2024-01-15T11:17:09;10.15;;;3.08;;
25980;SDS011;13772;52.996;9.124;2024-01-15T11:19:35;7.30;;;3.05;;
25980;SDS011;13772;52.996;9.124;2024-01-15T11:22:00;9.85;;;2.13;;
25980;SDS011;13772;52.996;9.124;2024-01-15T11:27:01;4.70;;;1.88;;
25980;SDS011;13772;52.996;9.124;2024-01-15T11:34:20;7.68;;;2.20;;
25980;SDS011;13772;52.996;9.124;2024-01-15T11:41:57;6.05;;;2.22;;
25980;SDS011;13772;52.996;9.124;2024-01-15T11:44:22;11.48;;;2.67;;
25980;SDS011;13772;52.996;9.124;2024-01-15T11:46:53;9.15;;;2.95;;
25980;SDS011;13772;52.996;9.124;2024-01-15T11:50:04;8.60;;;2.75;;
25980;SDS011;13772;52.996;9.124;2024-01-15T11:52:10;4.15;;;2.28;;
25980;SDS011;13772;52.996;9.124;2024-01-15T11:54:37;7.75;;;2.15;;
25980;SDS011;13772;52.996;9.124;2024-01-15T11:57:04;6.90;;;1.63;;
25980;SDS011;13772;52.996;9.124;2024-01-15T11:59:32;3.70;;;1.73;;
25980;SDS011;13772;52.996;9.124;2024-01-15T12:01:57;6.35;;;2.42;;
25980;SDS011;13772;52.996;9.124;2024-01-15T12:04:22;9.30;;;2.70;;
25980;SDS011;13772;52.996;9.124;2024-01-15T12:06:47;8.60;;;3.30;;
25980;SDS011;13772;52.996;9.124;2024-01-15T12:09:12;6.60;;;3.33;;
25980;SDS011;13772;52.996;9.124;2024-01-15T12:11:38;6.65;;;2.95;;
25980;SDS011;13772;52.996;9.124;2024-01-15T12:14:07;6.07;;;2.88;;
25980;SDS011;13772;52.996;9.124;2024-01-15T12:16:33;5.65;;;3.15;;
25980;SDS011;13772;52.996;9.124;2024-01-15T12:18:59;7.60;;;2.67;;
25980;SDS011;13772;52.996;9.124;2024-01-15T12:21:26;5.28;;;2.55;;
25980;SDS011;13772;52.996;9.124;2024-01-15T12:23:51;7.38;;;2.72;;
25980;SDS011;13772;52.996;9.124;2024-01-15T12:26:17;7.57;;;2.20;;
25980;SDS011;13772;52.996;9.124;2024-01-15T12:28:42;10.45;;;2.13;;
25980;SDS011;13772;52.996;9.124;2024-01-15T12:31:08;4.78;;;1.90;;
25980;SDS011;13772;52.996;9.124;2024-01-15T12:33:33;5.22;;;2.40;;
25980;SDS011;13772;52.996;9.124;2024-01-15T12:35:58;9.40;;;2.15;;
25980;SDS011;13772;52.996;9.124;2024-01-15T12:38:23;6.07;;;1.40;;
25980;SDS011;13772;52.996;9.124;2024-01-15T12:40:48;6.35;;;1.15;;
25980;SDS011;13772;52.996;9.124;2024-01-15T12:43:14;6.25;;;1.40;;
25980;SDS011;13772;52.996;9.124;2024-01-15T12:45:40;4.78;;;1.15;;
25980;SDS011;13772;52.996;9.124;2024-01-15T12:48:05;4.70;;;1.83;;
25980;SDS011;13772;52.996;9.124;2024-01-15T12:50:30;8.88;;;3.38;;
25980;SDS011;13772;52.996;9.124;2024-01-15T12:52:58;10.57;;;3.40;;
25980;SDS011;13772;52.996;9.124;2024-01-15T12:55:24;8.90;;;3.08;;
25980;SDS011;13772;52.996;9.124;2024-01-15T12:57:50;6.93;;;3.00;;
25980;SDS011;13772;52.996;9.124;2024-01-15T13:00:17;9.18;;;3.00;;
25980;SDS011;13772;52.996;9.124;2024-01-15T13:02:42;6.25;;;3.47;;
25980;SDS011;13772;52.996;9.124;2024-01-15T13:05:08;7.15;;;3.50;;
25980;SDS011;13772;52.996;9.124;2024-01-15T13:07:34;6.57;;;3.88;;
25980;SDS011;13772;52.996;9.124;2024-01-15T13:09:59;11.57;;;5.22;;
25980;SDS011;13772;52.996;9.124;2024-01-15T13:12:24;7.97;;;4.75;;
25980;SDS011;13772;52.996;9.124;2024-01-15T13:14:49;9.13;;;4.75;;
25980;SDS011;13772;52.996;9.124;2024-01-15T13:17:15;12.60;;;5.32;;
25980;SDS011;13772;52.996;9.124;2024-01-15T13:19:40;10.40;;;4.35;;
25980;SDS011;13772;52.996;9.124;2024-01-15T13:22:05;8.95;;;5.05;;
25980;SDS011;13772;52.996;9.124;2024-01-15T13:24:32;10.35;;;4.20;;
25980;SDS011;13772;52.996;9.124;2024-01-15T13:26:57;7.97;;;3.75;;
25980;SDS011;13772;52.996;9.124;2024-01-15T13:29:22;5.82;;;3.58;;
25980;SDS011;13772;52.996;9.124;2024-01-15T13:31:48;7.68;;;3.53;;
25980;SDS011;13772;52.996;9.124;2024-01-15T13:34:13;7.45;;;3.40;;
25980;SDS011;13772;52.996;9.124;2024-01-15T13:36:39;6.18;;;3.95;;
25980;SDS011;13772;52.996;9.124;2024-01-15T13:39:04;8.85;;;4.00;;
25980;SDS011;13772;52.996;9.124;2024-01-15T13:41:33;10.48;;;4.57;;
25980;SDS011;13772;52.996;9.124;2024-01-15T13:43:58;9.57;;;4.60;;
25980;SDS011;13772;52.996;9.124;2024-01-15T13:46:25;7.75;;;4.40;;
25980;SDS011;13772;52.996;9.124;2024-01-15T13:48:54;7.30;;;4.13;;
25980;SDS011;13772;52.996;9.124;2024-01-15T13:51:21;9.23;;;4.90;;
25980;SDS011;13772;52.996;9.124;2024-01-15T13:53:47;8.35;;;5.22;;
25980;SDS011;13772;52.996;9.124;2024-01-15T13:56:12;10.32;;;5.32;;
25980;SDS011;13772;52.996;9.124;2024-01-15T13:58:37;9.43;;;5.15;;
25980;SDS011;13772;52.996;9.124;2024-01-15T14:01:02;10.73;;;5.32;;
25980;SDS011;13772;52.996;9.124;2024-01-15T14:03:29;10.57;;;4.97;;
25980;SDS011;13772;52.996;9.124;2024-01-15T14:05:54;10.18;;;5.40;;
25980;SDS011;13772;52.996;9.124;2024-01-15T14:08:20;8.57;;;5.28;;
25980;SDS011;13772;52.996;9.124;2024-01-15T14:10:45;9.20;;;5.30;;
25980;SDS011;13772;52.996;9.124;2024-01-15T14:13:10;12.80;;;5.40;;
25980;SDS011;13772;52.996;9.124;2024-01-15T14:15:35;8.27;;;4.53;;
25980;SDS011;13772;52.996;9.124;2024-01-15T14:18:01;8.13;;;4.97;;
25980;SDS011;13772;52.996;9.124;2024-01-15T14:20:27;9.18;;;4.60;;
25980;SDS011;13772;52.996;9.124;2024-01-15T14:22:52;8.32;;;4.10;;
25980;SDS011;13772;52.996;9.124;2024-01-15T14:25:17;8.30;;;3.50;;
25980;SDS011;13772;52.996;9.124;2024-01-15T14:27:43;7.30;;;2.75;;
25980;SDS011;13772;52.996;9.124;2024-01-15T14:30:08;5.65;;;2.33;;
25980;SDS011;13772;52.996;9.124;2024-01-15T14:32:34;7.70;;;2.17;;
25980;SDS011;13772;52.996;9.124;2024-01-15T14:34:59;3.33;;;1.58;;
25980;SDS011;13772;52.996;9.124;2024-01-15T14:37:25;5.05;;;1.85;;
25980;SDS011;13772;52.996;9.124;2024-01-15T14:39:50;5.18;;;1.38;;
25980;SDS011;13772;52.996;9.124;2024-01-15T14:42:16;3.25;;;1.25;;
25980;SDS011;13772;52.996;9.124;2024-01-15T14:44:41;3.67;;;1.42;;
25980;SDS011;13772;52.996;9.124;2024-01-15T14:47:06;5.20;;;1.30;;
25980;SDS011;13772;52.996;9.124;2024-01-15T14:49:33;3.58;;;1.60;;
25980;SDS011;13772;52.996;9.124;2024-01-15T14:51:58;3.05;;;1.40;;
25980;SDS011;13772;52.996;9.124;2024-01-15T14:54:24;3.42;;;1.10;;
25980;SDS011;13772;52.996;9.124;2024-01-15T14:56:49;4.18;;;1.33;;
25980;SDS011;13772;52.996;9.124;2024-01-15T14:59:14;3.92;;;1.52;;
25980;SDS011;13772;52.996;9.124;2024-01-15T15:01:40;3.38;;;1.35;;
25980;SDS011;13772;52.996;9.124;2024-01-15T15:04:06;2.85;;;1.70;;
25980;SDS011;13772;52.996;9.124;2024-01-15T15:06:33;5.57;;;1.60;;
25980;SDS011;13772;52.996;9.124;2024-01-15T15:08:58;3.00;;;1.65;;
25980;SDS011;13772;52.996;9.124;2024-01-15T15:11:27;4.80;;;1.63;;
25980;SDS011;13772;52.996;9.124;2024-01-15T15:13:52;4.00;;;2.47;;
25980;SDS011;13772;52.996;9.124;2024-01-15T15:16:17;3.03;;;2.05;;
25980;SDS011;13772;52.996;9.124;2024-01-15T15:18:42;6.38;;;2.20;;
25980;SDS011;13772;52.996;9.124;2024-01-15T15:21:08;3.90;;;2.17;;
25980;SDS011;13772;52.996;9.124;2024-01-15T15:23:33;6.70;;;3.00;;
25980;SDS011;13772;52.996;9.124;2024-01-15T15:25:59;6.95;;;3.55;;
25980;SDS011;13772;52.996;9.124;2024-01-15T15:28:24;7.55;;;3.53;;
25980;SDS011;13772;52.996;9.124;2024-01-15T15:30:49;8.15;;;4.10;;
25980;SDS011;13772;52.996;9.124;2024-01-15T15:33:14;6.75;;;4.20;;
25980;SDS011;13772;52.996;9.124;2024-01-15T15:35:40;8.88;;;4.75;;
25980;SDS011;13772;52.996;9.124;2024-01-15T15:38:06;8.18;;;4.68;;
25980;SDS011;13772;52.996;9.124;2024-01-15T15:40:31;8.10;;;4.97;;
25980;SDS011;13772;52.996;9.124;2024-01-15T15:42:56;7.43;;;4.90;;
25980;SDS011;13772;52.996;9.124;2024-01-15T15:45:21;7.55;;;4.38;;
25980;SDS011;13772;52.996;9.124;2024-01-15T15:47:47;10.50;;;4.53;;
25980;SDS011;13772;52.996;9.124;2024-01-15T15:50:12;7.30;;;5.00;;
25980;SDS011;13772;52.996;9.124;2024-01-15T15:52:38;8.95;;;5.10;;
25980;SDS011;13772;52.996;9.124;2024-01-15T15:55:03;8.75;;;5.05;;
25980;SDS011;13772;52.996;9.124;2024-01-15T15:57:29;7.65;;;4.93;;
25980;SDS011;13772;52.996;9.124;2024-01-15T15:59:55;7.93;;;4.50;;
25980;SDS011;13772;52.996;9.124;2024-01-15T16:02:20;8.18;;;5.03;;
25980;SDS011;13772;52.996;9.124;2024-01-15T16:04:46;11.18;;;6.63;;
25980;SDS011;13772;52.996;9.124;2024-01-15T16:07:11;8.18;;;5.57;;
25980;SDS011;13772;52.996;9.124;2024-01-15T16:09:36;10.68;;;6.15;;
25980;SDS011;13772;52.996;9.124;2024-01-15T16:12:02;6.82;;;4.80;;
25980;SDS011;13772;52.996;9.124;2024-01-15T16:14:28;7.88;;;5.18;;
25980;SDS011;13772;52.996;9.124;2024-01-15T16:16:53;8.27;;;4.80;;
25980;SDS011;13772;52.996;9.124;2024-01-15T16:19:22;8.57;;;5.15;;
25980;SDS011;13772;52.996;9.124;2024-01-15T16:21:48;7.93;;;4.07;;
25980;SDS011;13772;52.996;9.124;2024-01-15T16:24:13;8.38;;;4.05;;
25980;SDS011;13772;52.996;9.124;2024-01-15T16:26:38;6.65;;;3.60;;
25980;SDS011;13772;52.996;9.124;2024-01-15T16:29:03;4.30;;;2.85;;
25980;SDS011;13772;52.996;9.124;2024-01-15T16:31:29;6.57;;;3.10;;
25980;SDS011;13772;52.996;9.124;2024-01-15T16:33:54;4.10;;;2.67;;
25980;SDS011;13772;52.996;9.124;2024-01-15T16:36:19;5.82;;;2.95;;
25980;SDS011;13772;52.996;9.124;2024-01-15T16:38:45;3.97;;;2.90;;
25980;SDS011;13772;52.996;9.124;2024-01-15T16:41:10;6.93;;;4.30;;
25980;SDS011;13772;52.996;9.124;2024-01-15T16:43:36;4.15;;;2.70;;
25980;SDS011;13772;52.996;9.124;2024-01-15T16:46:01;4.43;;;3.20;;
25980;SDS011;13772;52.996;9.124;2024-01-15T16:48:26;5.88;;;3.40;;
25980;SDS011;13772;52.996;9.124;2024-01-15T16:50:51;7.28;;;4.68;;
25980;SDS011;13772;52.996;9.124;2024-01-15T16:53:18;5.82;;;3.92;;
25980;SDS011;13772;52.996;9.124;2024-01-15T16:55:44;6.00;;;3.88;;
25980;SDS011;13772;52.996;9.124;2024-01-15T16:58:09;7.30;;;5.63;;
25980;SDS011;13772;52.996;9.124;2024-01-15T17:00:34;6.88;;;5.15;;
25980;SDS011;13772;52.996;9.124;2024-01-15T17:02:59;5.35;;;3.88;;
25980;SDS011;13772;52.996;9.124;2024-01-15T17:05:25;5.15;;;3.50;;
25980;SDS011;13772;52.996;9.124;2024-01-15T17:07:50;7.00;;;4.40;;
25980;SDS011;13772;52.996;9.124;2024-01-15T17:10:15;8.02;;;5.40;;
25980;SDS011;13772;52.996;9.124;2024-01-15T17:12:41;5.55;;;4.40;;
25980;SDS011;13772;52.996;9.124;2024-01-15T17:15:06;5.57;;;3.92;;
25980;SDS011;13772;52.996;9.124;2024-01-15T17:17:31;7.27;;;4.33;;
25980;SDS011;13772;52.996;9.124;2024-01-15T17:19:57;6.57;;;3.97;;
25980;SDS011;13772;52.996;9.124;2024-01-15T17:22:22;7.32;;;4.10;;
25980;SDS011;13772;52.996;9.124;2024-01-15T17:24:47;8.07;;;4.55;;
25980;SDS011;13772;52.996;9.124;2024-01-15T17:27:12;10.70;;;4.63;;
25980;SDS011;13772;52.996;9.124;2024-01-15T17:29:38;8.55;;;4.00;;
25980;SDS011;13772;52.996;9.124;2024-01-15T17:32:03;13.53;;;4.40;;
25980;SDS011;13772;52.996;9.124;2024-01-15T17:34:28;7.57;;;3.78;;
25980;SDS011;13772;52.996;9.124;2024-01-15T17:36:53;7.78;;;3.72;;
25980;SDS011;13772;52.996;9.124;2024-01-15T17:39:18;5.00;;;3.45;;
25980;SDS011;13772;52.996;9.124;2024-01-15T17:41:44;12.73;;;6.83;;
25980;SDS011;13772;52.996;9.124;2024-01-15T17:44:09;3.63;;;2.43;;
25980;SDS011;13772;52.996;9.124;2024-01-15T17:46:34;9.30;;;3.33;;
25980;SDS011;13772;52.996;9.124;2024-01-15T17:49:00;6.53;;;3.03;;
25980;SDS011;13772;52.996;9.124;2024-01-15T17:51:31;14.03;;;5.70;;
25980;SDS011;13772;52.996;9.124;2024-01-15T17:53:57;13.45;;;5.20;;
25980;SDS011;13772;52.996;9.124;2024-01-15T17:56:22;6.93;;;3.50;;
25980;SDS011;13772;52.996;9.124;2024-01-15T17:58:47;8.73;;;3.27;;
25980;SDS011;13772;52.996;9.124;2024-01-15T18:01:13;6.20;;;2.40;;
25980;SDS011;13772;52.996;9.124;2024-01-15T18:03:38;7.40;;;2.25;;
25980;SDS011;13772;52.996;9.124;2024-01-15T18:06:04;4.82;;;2.17;;
25980;SDS011;13772;52.996;9.124;2024-01-15T18:08:29;6.57;;;2.50;;
25980;SDS011;13772;52.996;9.124;2024-01-15T18:10:55;8.35;;;2.28;;
25980;SDS011;13772;52.996;9.124;2024-01-15T18:13:20;5.70;;;2.57;;
25980;SDS011;13772;52.996;9.124;2024-01-15T18:15:46;4.90;;;2.20;;
25980;SDS011;13772;52.996;9.124;2024-01-15T18:18:11;9.50;;;2.20;;
25980;SDS011;13772;52.996;9.124;2024-01-15T18:20:36;7.37;;;2.00;;
25980;SDS011;13772;52.996;9.124;2024-01-15T18:23:01;6.63;;;2.20;;
25980;SDS011;13772;52.996;9.124;2024-01-15T18:25:27;5.50;;;2.27;;
25980;SDS011;13772;52.996;9.124;2024-01-15T18:27:52;6.85;;;2.22;;
25980;SDS011;13772;52.996;9.124;2024-01-15T18:30:17;4.53;;;2.33;;
25980;SDS011;13772;52.996;9.124;2024-01-15T18:32:42;6.85;;;2.53;;
25980;SDS011;13772;52.996;9.124;2024-01-15T18:35:08;5.73;;;2.87;;
25980;SDS011;13772;52.996;9.124;2024-01-15T18:37:33;7.87;;;2.87;;
25980;SDS011;13772;52.996;9.124;2024-01-15T18:39:58;7.90;;;3.33;;
25980;SDS011;13772;52.996;9.124;2024-01-15T18:42:23;10.13;;;4.20;;
25980;SDS011;13772;52.996;9.124;2024-01-15T18:44:49;12.63;;;4.23;;
25980;SDS011;13772;52.996;9.124;2024-01-15T18:47:14;9.23;;;4.27;;
25980;SDS011;13772;52.996;9.124;2024-01-15T18:49:40;10.80;;;4.20;;
25980;SDS011;13772;52.996;9.124;2024-01-15T18:52:05;8.80;;;3.73;;
25980;SDS011;13772;52.996;9.124;2024-01-15T18:54:31;9.23;;;4.17;;
25980;SDS011;13772;52.996;9.124;2024-01-15T18:56:56;12.60;;;4.13;;
25980;SDS011;13772;52.996;9.124;2024-01-15T18:59:21;10.27;;;4.47;;
25980;SDS011;13772;52.996;9.124;2024-01-15T19:01:49;8.80;;;4.07;;
25980;SDS011;13772;52.996;9.124;2024-01-15T19:04:15;13.03;;;4.63;;
25980;SDS011;13772;52.996;9.124;2024-01-15T19:06:40;8.63;;;4.43;;
25980;SDS011;13772;52.996;9.124;2024-01-15T19:09:05;12.07;;;4.80;;
25980;SDS011;13772;52.996;9.124;2024-01-15T19:11:31;13.93;;;4.80;;
25980;SDS011;13772;52.996;9.124;2024-01-15T19:13:56;10.07;;;4.35;;
25980;SDS011;13772;52.996;9.124;2024-01-15T19:16:21;11.83;;;4.73;;
25980;SDS011;13772;52.996;9.124;2024-01-15T19:18:47;15.23;;;5.07;;
25980;SDS011;13772;52.996;9.124;2024-01-15T19:21:13;9.43;;;4.97;;
25980;SDS011;13772;52.996;9.124;2024-01-15T19:23:38;8.47;;;4.93;;
25980;SDS011;13772;52.996;9.124;2024-01-15T19:26:04;11.43;;;5.40;;
25980;SDS011;13772;52.996;9.124;2024-01-15T19:28:29;11.97;;;5.43;;
25980;SDS011;13772;52.996;9.124;2024-01-15T19:30:54;11.82;;;5.40;;
25980;SDS011;13772;52.996;9.124;2024-01-15T19:33:19;13.63;;;4.93;;
25980;SDS011;13772;52.996;9.124;2024-01-15T19:35:45;13.30;;;4.78;;
25980;SDS011;13772;52.996;9.124;2024-01-15T19:38:12;8.82;;;5.28;;
25980;SDS011;13772;52.996;9.124;2024-01-15T19:40:37;11.67;;;5.23;;
25980;SDS011;13772;52.996;9.124;2024-01-15T19:43:03;8.40;;;5.07;;
25980;SDS011;13772;52.996;9.124;2024-01-15T19:45:28;7.67;;;4.63;;
25980;SDS011;13772;52.996;9.124;2024-01-15T19:47:54;8.50;;;5.37;;
25980;SDS011;13772;52.996;9.124;2024-01-15T19:50:19;10.15;;;5.72;;
25980;SDS011;13772;52.996;9.124;2024-01-15T19:52:44;11.27;;;5.72;;
25980;SDS011;13772;52.996;9.124;2024-01-15T19:55:10;9.70;;;5.32;;
25980;SDS011;13772;52.996;9.124;2024-01-15T19:57:35;8.45;;;4.82;;
25980;SDS011;13772;52.996;9.124;2024-01-15T20:00:00;6.82;;;4.85;;
25980;SDS011;13772;52.996;9.124;2024-01-15T20:02:25;6.50;;;4.38;;
25980;SDS011;13772;52.996;9.124;2024-01-15T20:04:50;8.07;;;3.97;;
25980;SDS011;13772;52.996;9.124;2024-01-15T20:07:16;7.85;;;3.95;;
25980;SDS011;13772;52.996;9.124;2024-01-15T20:09:41;8.07;;;3.37;;
25980;SDS011;13772;52.996;9.124;2024-01-15T20:12:06;6.00;;;3.10;;
25980;SDS011;13772;52.996;9.124;2024-01-15T20:14:31;4.07;;;2.37;;
25980;SDS011;13772;52.996;9.124;2024-01-15T20:16:57;5.17;;;2.27;;
25980;SDS011;13772;52.996;9.124;2024-01-15T20:19:23;5.63;;;2.33;;
25980;SDS011;13772;52.996;9.124;2024-01-15T20:21:48;7.40;;;2.13;;
25980;SDS011;13772;52.996;9.124;2024-01-15T20:24:14;7.32;;;2.45;;
25980;SDS011;13772;52.996;9.124;2024-01-15T20:26:39;3.83;;;1.50;;
25980;SDS011;13772;52.996;9.124;2024-01-15T20:29:04;4.50;;;1.80;;
25980;SDS011;13772;52.996;9.124;2024-01-15T20:31:29;7.37;;;1.70;;
25980;SDS011;13772;52.996;9.124;2024-01-15T20:33:55;7.17;;;1.80;;
25980;SDS011;13772;52.996;9.124;2024-01-15T20:36:20;4.50;;;1.80;;
25980;SDS011;13772;52.996;9.124;2024-01-15T20:38:45;5.80;;;1.50;;
25980;SDS011;13772;52.996;9.124;2024-01-15T20:41:11;3.67;;;1.60;;
25980;SDS011;13772;52.996;9.124;2024-01-15T20:43:36;3.60;;;1.37;;
25980;SDS011;13772;52.996;9.124;2024-01-15T20:46:01;5.40;;;1.27;;
25980;SDS011;13772;52.996;9.124;2024-01-15T20:48:27;6.03;;;2.07;;
25980;SDS011;13772;52.996;9.124;2024-01-15T20:50:52;3.85;;;1.77;;
25980;SDS011;13772;52.996;9.124;2024-01-15T20:53:18;6.33;;;1.93;;
25980;SDS011;13772;52.996;9.124;2024-01-15T20:55:43;5.60;;;2.00;;
25980;SDS011;13772;52.996;9.124;2024-01-15T20:58:08;4.73;;;1.77;;
25980;SDS011;13772;52.996;9.124;2024-01-15T21:00:33;3.87;;;1.67;;
25980;SDS011;13772;52.996;9.124;2024-01-15T21:02:59;5.23;;;2.67;;
25980;SDS011;13772;52.996;9.124;2024-01-15T21:05:24;10.07;;;1.87;;
25980;SDS011;13772;52.996;9.124;2024-01-15T21:07:50;3.13;;;1.60;;
25980;SDS011;13772;52.996;9.124;2024-01-15T21:10:15;5.70;;;1.80;;
25980;SDS011;13772;52.996;9.124;2024-01-15T21:12:41;5.53;;;1.50;;
25980;SDS011;13772;52.996;9.124;2024-01-15T21:15:06;4.13;;;1.20;;
25980;SDS011;13772;52.996;9.124;2024-01-15T21:17:33;2.67;;;1.33;;
25980;SDS011;13772;52.996;9.124;2024-01-15T21:19:58;4.30;;;1.40;;
25980;SDS011;13772;52.996;9.124;2024-01-15T21:22:23;4.63;;;1.40;;
25980;SDS011;13772;52.996;9.124;2024-01-15T21:24:48;9.37;;;1.50;;
25980;SDS011;13772;52.996;9.124;2024-01-15T21:27:14;3.47;;;1.00;;
25980;SDS011;13772;52.996;9.124;2024-01-15T21:29:39;3.30;;;0.93;;
25980;SDS011;13772;52.996;9.124;2024-01-15T21:32:04;3.90;;;1.00;;
25980;SDS011;13772;52.996;9.124;2024-01-15T21:34:29;3.77;;;0.90;;
25980;SDS011;13772;52.996;9.124;2024-01-15T21:36:55;3.83;;;1.10;;
25980;SDS011;13772;52.996;9.124;2024-01-15T21:39:20;2.67;;;0.83;;
25980;SDS011;13772;52.996;9.124;2024-01-15T21:41:45;2.43;;;1.03;;
25980;SDS011;13772;52.996;9.124;2024-01-15T21:44:10;2.60;;;0.80;;
25980;SDS011;13772;52.996;9.124;2024-01-15T21:46:36;3.27;;;1.13;;
25980;SDS011;13772;52.996;9.124;2024-01-15T21:49:01;3.17;;;0.90;;
25980;SDS011;13772;52.996;9.124;2024-01-15T21:51:27;6.57;;;1.10;;
25980;SDS011;13772;52.996;9.124;2024-01-15T21:53:52;3.40;;;0.80;;
25980;SDS011;13772;52.996;9.124;2024-01-15T21:56:17;3.00;;;1.40;;
25980;SDS011;13772;52.996;9.124;2024-01-15T21:58:42;3.58;;;1.10;;
25980;SDS011;13772;52.996;9.124;2024-01-15T22:01:08;7.97;;;1.50;;
25980;SDS011;13772;52.996;9.124;2024-01-15T22:03:33;5.25;;;1.20;;
25980;SDS011;13772;52.996;9.124;2024-01-15T22:05:58;6.57;;;1.53;;
25980;SDS011;13772;52.996;9.124;2024-01-15T22:08:24;7.05;;;1.52;;
25980;SDS011;13772;52.996;9.124;2024-01-15T22:10:49;6.38;;;1.35;;
25980;SDS011;13772;52.996;9.124;2024-01-15T22:13:14;5.05;;;1.50;;
25980;SDS011;13772;52.996;9.124;2024-01-15T22:15:39;5.70;;;1.70;;
25980;SDS011;13772;52.996;9.124;2024-01-15T22:18:05;7.77;;;1.73;;
25980;SDS011;13772;52.996;9.124;2024-01-15T22:20:30;6.90;;;1.77;;
25980;SDS011;13772;52.996;9.124;2024-01-15T22:22:56;8.27;;;1.97;;
25980;SDS011;13772;52.996;9.124;2024-01-15T22:25:21;5.95;;;1.90;;
25980;SDS011;13772;52.996;9.124;2024-01-15T22:27:46;3.00;;;1.58;;
25980;SDS011;13772;52.996;9.124;2024-01-15T22:30:11;7.43;;;2.47;;
25980;SDS011;13772;52.996;9.124;2024-01-15T22:32:37;7.07;;;2.13;;
25980;SDS011;13772;52.996;9.124;2024-01-15T22:35:02;5.93;;;2.03;;
25980;SDS011;13772;52.996;9.124;2024-01-15T22:37:27;8.20;;;2.40;;
25980;SDS011;13772;52.996;9.124;2024-01-15T22:39:52;8.93;;;3.00;;
25980;SDS011;13772;52.996;9.124;2024-01-15T22:42:17;10.20;;;2.70;;
25980;SDS011;13772;52.996;9.124;2024-01-15T22:44:43;6.10;;;2.73;;
25980;SDS011;13772;52.996;9.124;2024-01-15T22:47:09;5.50;;;2.35;;
25980;SDS011;13772;52.996;9.124;2024-01-15T22:49:34;7.13;;;3.00;;
25980;SDS011;13772;52.996;9.124;2024-01-15T22:51:59;8.90;;;2.97;;
25980;SDS011;13772;52.996;9.124;2024-01-15T22:54:24;8.05;;;2.67;;
25980;SDS011;13772;52.996;9.124;2024-01-15T22:56:50;11.33;;;2.73;;
